createdAt,value
2022-11-14T00:00:49.563Z,26.77
2022-11-14T00:02:51.123Z,32.28
2022-11-14T00:04:52.616Z,34.10
2022-11-14T00:06:54.156Z,27.73
2022-11-14T00:08:55.659Z,30.27
2022-11-14T00:10:57.106Z,31.67
2022-11-14T00:12:58.564Z,34.65
2022-11-14T00:15:00.128Z,33.03
2022-11-14T00:17:01.947Z,31.20
2022-11-14T00:19:03.672Z,29.20
2022-11-14T00:21:05.157Z,34.22
2022-11-14T00:23:06.569Z,35.63
2022-11-14T00:25:08.490Z,35.80
2022-11-14T00:27:09.920Z,33.50
2022-11-14T00:29:15.752Z,34.70
2022-11-14T00:31:17.354Z,31.98
2022-11-14T00:33:20.875Z,34.97
2022-11-14T00:35:22.542Z,34.00
2022-11-14T00:37:23.992Z,33.78
2022-11-14T00:39:25.493Z,33.15
2022-11-14T00:41:26.909Z,37.40
2022-11-14T00:43:28.403Z,34.33
2022-11-14T00:45:29.827Z,34.55
2022-11-14T00:47:31.276Z,32.03
2022-11-14T00:49:32.775Z,33.92
2022-11-14T00:51:34.192Z,31.38
2022-11-14T00:53:36.114Z,33.67
2022-11-14T00:55:37.796Z,33.22
2022-11-14T00:57:39.245Z,32.28
2022-11-14T00:59:40.686Z,32.45
2022-11-14T01:01:42.165Z,35.10
2022-11-14T01:03:43.597Z,30.92
2022-11-14T01:05:50.706Z,30.88
2022-11-14T01:07:52.165Z,32.47
2022-11-14T01:09:53.612Z,30.27
2022-11-14T01:11:55.130Z,31.55
2022-11-14T01:13:56.567Z,31.55
2022-11-14T01:16:00.828Z,40.28
2022-11-14T01:18:02.271Z,34.28
2022-11-14T01:20:04.564Z,33.97
2022-11-14T01:22:06.734Z,33.38
2022-11-14T01:24:08.402Z,35.67
2022-11-14T01:26:13.283Z,33.42
2022-11-14T01:28:18.320Z,32.13
2022-11-14T01:30:19.743Z,35.70
2022-11-14T01:32:21.201Z,32.35
2022-11-14T01:34:23.497Z,34.42
2022-11-14T01:36:25.058Z,33.83
2022-11-14T01:38:26.734Z,32.13
2022-11-14T01:40:28.954Z,29.88
2022-11-14T01:42:30.451Z,31.85
2022-11-14T01:44:55.012Z,30.58
2022-11-14T01:46:57.068Z,31.33
2022-11-14T01:49:01.186Z,33.08
2022-11-14T01:51:25.888Z,31.95
2022-11-14T01:53:28.175Z,33.63
2022-11-14T01:55:29.619Z,33.17
2022-11-14T01:57:36.313Z,30.83
2022-11-14T01:59:42.500Z,29.30
2022-11-14T02:01:50.196Z,32.10
2022-11-14T02:03:54.543Z,32.95
2022-11-14T02:05:57.015Z,31.02
2022-11-14T02:07:58.596Z,30.38
2022-11-14T02:10:03.529Z,32.30
2022-11-14T02:12:08.577Z,30.92
2022-11-14T02:14:11.180Z,31.00
2022-11-14T02:16:12.683Z,32.13
2022-11-14T02:18:14.143Z,33.55
2022-11-14T02:20:25.079Z,33.65
2022-11-14T02:22:26.577Z,28.73
2022-11-14T02:24:27.996Z,35.08
2022-11-14T02:26:33.031Z,30.20
2022-11-14T02:28:37.360Z,31.50
2022-11-14T02:30:38.825Z,30.85
2022-11-14T02:33:08.872Z,30.08
2022-11-14T02:35:02.029Z,31.88
2022-11-14T02:37:03.644Z,35.10
2022-11-14T02:39:05.094Z,32.28
2022-11-14T02:41:06.537Z,31.38
2022-11-14T02:43:08.078Z,32.10
2022-11-14T02:45:10.645Z,31.90
2022-11-14T02:47:12.069Z,30.80
2022-11-14T02:49:13.540Z,32.50
2022-11-14T02:51:14.953Z,33.78
2022-11-14T02:53:16.416Z,30.02
2022-11-14T02:55:17.863Z,31.42
2022-11-14T02:57:19.288Z,31.55
2022-11-14T02:59:20.767Z,30.88
2022-11-14T03:01:22.282Z,30.10
2022-11-14T03:03:23.815Z,30.30
2022-11-14T03:05:25.881Z,28.15
2022-11-14T03:07:27.511Z,33.38
2022-11-14T03:09:28.952Z,32.83
2022-11-14T03:11:31.199Z,36.95
2022-11-14T03:13:32.761Z,29.75
2022-11-14T03:15:37.529Z,35.45
2022-11-14T03:17:39.029Z,29.42
2022-11-14T03:19:40.472Z,31.95
2022-11-14T03:21:41.896Z,32.88
2022-11-14T03:23:44.196Z,30.58
2022-11-14T03:25:45.603Z,35.30
2022-11-14T03:27:47.033Z,34.95
2022-11-14T03:29:49.305Z,33.95
2022-11-14T03:31:50.735Z,33.28
2022-11-14T03:33:52.161Z,34.70
2022-11-14T03:35:53.950Z,35.00
2022-11-14T03:37:56.822Z,30.38
2022-11-14T03:39:58.385Z,32.15
2022-11-14T03:41:59.840Z,34.17
2022-11-14T03:44:01.335Z,29.67
2022-11-14T03:46:03.474Z,33.70
2022-11-14T03:48:06.508Z,33.28
2022-11-14T03:50:08.224Z,31.77
2022-11-14T03:52:09.660Z,33.33
2022-11-14T03:54:11.091Z,32.03
2022-11-14T03:56:12.529Z,30.60
2022-11-14T03:58:13.991Z,28.73
2022-11-14T04:00:16.173Z,30.50
2022-11-14T04:02:17.641Z,37.40
2022-11-14T04:04:19.122Z,34.17
2022-11-14T04:06:20.704Z,34.78
2022-11-14T04:08:22.196Z,35.50
2022-11-14T04:10:23.716Z,34.47
2022-11-14T04:12:25.365Z,33.20
2022-11-14T04:14:26.807Z,34.70
2022-11-14T04:16:28.251Z,35.75
2022-11-14T04:18:30.168Z,34.45
2022-11-14T04:20:31.973Z,36.65
2022-11-14T04:22:33.419Z,33.58
2022-11-14T04:24:34.880Z,32.30
2022-11-14T04:26:36.328Z,34.83
2022-11-14T04:28:37.758Z,35.55
2022-11-14T04:30:39.815Z,34.40
2022-11-14T04:32:41.252Z,37.90
2022-11-14T04:34:42.667Z,33.65
2022-11-14T04:36:44.417Z,33.83
2022-11-14T04:38:45.856Z,35.63
2022-11-14T04:40:51.903Z,36.22
2022-11-14T04:42:53.382Z,37.05
2022-11-14T04:44:54.902Z,36.55
2022-11-14T04:46:57.159Z,35.83
2022-11-14T04:48:58.600Z,34.70
2022-11-14T04:51:00.038Z,35.60
2022-11-14T04:53:01.452Z,36.35
2022-11-14T04:55:03.363Z,38.92
2022-11-14T04:57:04.810Z,38.97
2022-11-14T04:59:06.270Z,36.17
2022-11-14T05:01:10.139Z,34.33
2022-11-14T05:03:11.642Z,40.00
2022-11-14T05:05:13.266Z,38.03
2022-11-14T05:07:15.478Z,33.33
2022-11-14T05:09:17.031Z,39.47
2022-11-14T05:11:21.482Z,38.05
2022-11-14T05:13:24.649Z,36.05
2022-11-14T05:15:26.335Z,37.92
2022-11-14T05:17:28.341Z,36.05
2022-11-14T05:19:29.742Z,38.05
2022-11-14T05:21:31.217Z,37.25
2022-11-14T05:23:32.974Z,36.13
2022-11-14T05:25:34.409Z,39.50
2022-11-14T05:27:35.860Z,37.92
2022-11-14T05:29:37.320Z,39.05
2022-11-14T05:31:38.749Z,39.80
2022-11-14T05:33:40.222Z,39.10
2022-11-14T05:35:41.639Z,40.97
2022-11-14T05:37:43.078Z,43.75
2022-11-14T05:39:44.499Z,38.10
2022-11-14T05:41:45.959Z,39.20
2022-11-14T05:43:47.621Z,36.95
2022-11-14T05:45:49.099Z,39.05
2022-11-14T05:47:53.979Z,39.33
2022-11-14T05:49:55.393Z,38.55
2022-11-14T05:51:56.813Z,36.25
2022-11-14T05:53:58.280Z,36.83
2022-11-14T05:56:04.802Z,39.63
2022-11-14T05:58:06.308Z,39.22
2022-11-14T06:00:09.280Z,38.47
2022-11-14T06:02:10.810Z,36.85
2022-11-14T06:04:15.410Z,40.80
2022-11-14T06:06:22.421Z,41.55
2022-11-14T06:08:23.846Z,41.55
2022-11-14T06:10:25.453Z,41.58
2022-11-14T06:12:26.924Z,39.20
2022-11-14T06:14:28.340Z,40.13
2022-11-14T06:16:29.946Z,39.17
2022-11-14T06:18:33.772Z,36.85
2022-11-14T06:20:36.250Z,39.65
2022-11-14T06:22:39.819Z,41.50
2022-11-14T06:24:41.245Z,38.60
2022-11-14T06:26:42.853Z,42.65
2022-11-14T06:28:44.308Z,42.63
2022-11-14T06:30:45.716Z,40.70
2022-11-14T06:32:47.205Z,41.28
2022-11-14T06:34:48.986Z,42.42
2022-11-14T06:36:50.464Z,44.38
2022-11-14T06:38:51.928Z,41.53
2022-11-14T06:40:53.488Z,40.38
2022-11-14T06:42:57.773Z,42.05
2022-11-14T06:44:59.233Z,38.22
2022-11-14T06:47:00.757Z,40.08
2022-11-14T06:49:02.227Z,43.40
2022-11-14T06:51:04.999Z,41.45
2022-11-14T06:53:06.448Z,42.83
2022-11-14T06:55:08.139Z,44.67
2022-11-14T06:57:09.575Z,43.30
2022-11-14T06:59:11.576Z,42.75
2022-11-14T07:01:21.907Z,45.10
2022-11-14T07:03:23.455Z,43.78
2022-11-14T07:05:24.893Z,45.17
2022-11-14T07:07:28.632Z,40.88
2022-11-14T07:09:30.326Z,43.03
2022-11-14T07:11:32.108Z,40.33
2022-11-14T07:13:34.627Z,41.78
2022-11-14T07:15:36.036Z,44.65
2022-11-14T07:17:37.462Z,42.95
2022-11-14T07:19:38.966Z,45.33
2022-11-14T07:21:40.504Z,42.33
2022-11-14T07:23:42.335Z,43.25
2022-11-14T07:25:43.854Z,44.65
2022-11-14T07:27:45.284Z,45.75
2022-11-14T07:29:46.699Z,44.60
2022-11-14T07:31:48.149Z,43.33
2022-11-14T07:33:49.580Z,49.55
2022-11-14T07:35:51.958Z,41.13
2022-11-14T07:37:53.390Z,44.42
2022-11-14T07:39:54.835Z,44.63
2022-11-14T07:41:56.295Z,42.38
2022-11-14T07:43:57.854Z,44.95
2022-11-14T07:46:03.228Z,47.90
2022-11-14T07:48:04.901Z,44.72
2022-11-14T07:50:06.810Z,41.78
2022-11-14T07:52:08.323Z,42.85
2022-11-14T07:54:12.011Z,41.25
2022-11-14T07:56:13.816Z,45.35
2022-11-14T07:58:15.299Z,42.38
2022-11-14T08:00:17.057Z,44.08
2022-11-14T08:02:18.523Z,43.13
2022-11-14T08:04:19.923Z,47.45
2022-11-14T08:06:21.706Z,42.97
2022-11-14T08:08:23.128Z,42.70
2022-11-14T08:10:25.536Z,43.67
2022-11-14T08:12:29.043Z,49.17
2022-11-14T08:14:30.519Z,47.10
2022-11-14T08:16:31.984Z,51.05
2022-11-14T08:18:33.431Z,46.13
2022-11-14T08:20:35.057Z,46.53
2022-11-14T08:22:36.502Z,46.20
2022-11-14T08:24:37.932Z,45.83
2022-11-14T08:26:39.573Z,47.05
2022-11-14T08:28:41.020Z,41.78
2022-11-14T08:30:42.540Z,46.80
2022-11-14T08:32:44.025Z,45.90
2022-11-14T08:34:45.681Z,47.10
2022-11-14T08:36:47.119Z,48.53
2022-11-14T08:38:51.397Z,53.75
2022-11-14T08:40:53.141Z,44.15
2022-11-14T08:43:03.716Z,47.97
2022-11-14T08:45:05.790Z,45.35
2022-11-14T08:47:07.287Z,53.47
2022-11-14T08:49:08.711Z,45.58
2022-11-14T08:51:10.199Z,45.35
2022-11-14T08:53:11.654Z,43.88
2022-11-14T08:55:13.217Z,44.10
2022-11-14T08:57:15.399Z,42.42
2022-11-14T08:59:16.920Z,46.75
2022-11-14T09:01:18.349Z,48.65
2022-11-14T09:03:19.982Z,47.13
2022-11-14T09:05:21.848Z,46.80
2022-11-14T09:07:23.347Z,51.38
2022-11-14T09:09:24.864Z,49.35
2022-11-14T09:11:26.329Z,52.53
2022-11-14T09:13:28.084Z,45.95
2022-11-14T09:15:30.397Z,48.22
2022-11-14T09:17:31.876Z,56.05
2022-11-14T09:19:33.291Z,47.70
2022-11-14T09:21:34.743Z,42.70
2022-11-14T09:23:36.869Z,48.72
2022-11-14T09:25:38.586Z,46.85
2022-11-14T09:27:40.025Z,45.83
2022-11-14T09:29:41.473Z,52.03
2022-11-14T09:31:42.899Z,47.28
2022-11-14T09:33:44.326Z,41.38
2022-11-14T09:35:45.790Z,55.97
2022-11-14T09:37:47.234Z,52.35
2022-11-14T09:39:48.669Z,45.20
2022-11-14T09:42:16.820Z,47.00
2022-11-14T09:46:26.071Z,47.60
2022-11-14T09:48:31.228Z,49.53
2022-11-14T09:50:37.024Z,48.20
2022-11-14T09:52:46.259Z,47.22
2022-11-14T09:54:56.449Z,47.33
2022-11-14T09:56:57.895Z,50.78
2022-11-14T09:58:59.384Z,48.47
2022-11-14T10:01:10.679Z,45.38
2022-11-14T10:03:35.015Z,46.90
2022-11-14T10:05:45.896Z,46.17
2022-11-14T10:07:53.452Z,52.08
2022-11-14T10:10:26.054Z,50.25
2022-11-14T10:12:52.088Z,50.67
2022-11-14T10:15:03.480Z,46.80
2022-11-14T10:17:22.510Z,45.63
2022-11-14T10:19:33.036Z,50.08
2022-11-14T10:21:37.529Z,49.05
2022-11-14T10:24:00.762Z,48.83
2022-11-14T10:26:25.743Z,43.83
2022-11-14T10:29:24.443Z,45.35
2022-11-14T10:31:49.147Z,42.58
2022-11-14T10:34:01.690Z,44.40
2022-11-14T10:36:12.143Z,39.00
2022-11-14T10:38:21.412Z,38.28
2022-11-14T10:40:34.254Z,42.55
2022-11-14T10:42:38.830Z,42.42
2022-11-14T10:44:50.994Z,40.60
2022-11-14T10:46:58.812Z,34.67
2022-11-14T10:49:00.912Z,42.60
2022-11-14T10:51:10.796Z,37.50
2022-11-14T10:53:23.805Z,64.50
2022-11-14T10:55:49.707Z,37.22
2022-11-14T10:57:46.690Z,46.03
2022-11-14T10:59:49.039Z,36.15
2022-11-14T11:01:50.472Z,47.75
2022-11-14T11:03:51.976Z,36.78
2022-11-14T11:05:57.461Z,40.67
2022-11-14T11:08:42.504Z,37.05
2022-11-14T11:11:02.127Z,39.25
2022-11-14T11:13:03.670Z,75.20
2022-11-14T11:15:20.410Z,38.10
2022-11-14T11:17:23.098Z,37.10
2022-11-14T11:19:27.142Z,44.08
2022-11-14T11:21:48.486Z,39.20
2022-11-14T11:23:55.771Z,47.67
2022-11-14T11:26:15.794Z,39.78
2022-11-14T11:28:20.122Z,42.70
2022-11-14T11:30:23.360Z,41.22
2022-11-14T11:32:26.245Z,40.42
2022-11-14T11:34:30.999Z,41.03
2022-11-14T11:36:40.791Z,40.10
2022-11-14T11:38:42.388Z,41.70
2022-11-14T11:40:46.575Z,37.88
2022-11-14T11:45:19.555Z,44.75
2022-11-14T11:47:21.795Z,42.22
2022-11-14T11:49:53.362Z,42.33
2022-11-14T11:51:58.128Z,41.95
2022-11-14T11:54:27.292Z,38.20
2022-11-14T11:56:31.849Z,40.80
2022-11-14T11:58:42.834Z,41.72
2022-11-14T12:00:44.327Z,36.95
2022-11-14T12:02:50.040Z,44.58
2022-11-14T12:04:54.491Z,42.28
2022-11-14T12:07:14.742Z,39.95
2022-11-14T12:09:48.734Z,42.55
2022-11-14T12:11:55.627Z,41.22
2022-11-14T12:14:28.191Z,38.95
2022-11-14T12:16:45.627Z,37.03
2022-11-14T12:19:20.861Z,36.40
2022-11-14T12:21:54.236Z,36.88
2022-11-14T12:23:58.868Z,42.15
2022-11-14T12:26:18.726Z,43.28
2022-11-14T12:29:01.885Z,41.05
2022-11-14T12:31:10.963Z,38.63
2022-11-14T12:33:22.003Z,41.80
2022-11-14T12:35:26.534Z,41.17
2022-11-14T12:37:38.258Z,41.47
2022-11-14T12:39:39.784Z,41.22
2022-11-14T12:41:42.073Z,39.05
2022-11-14T12:43:44.216Z,37.78
2022-11-14T12:45:51.932Z,38.80
2022-11-14T12:48:29.125Z,38.60
2022-11-14T12:50:42.047Z,37.58
2022-11-14T12:52:46.300Z,39.85
2022-11-14T12:54:49.175Z,39.45
2022-11-14T12:56:59.607Z,60.75
2022-11-14T12:59:22.326Z,63.10
2022-11-14T13:01:36.777Z,40.38
2022-11-14T13:03:50.290Z,37.65
2022-11-14T13:06:03.758Z,38.20
2022-11-14T13:08:24.276Z,60.03
2022-11-14T13:10:31.985Z,38.47
2022-11-14T13:12:53.272Z,38.20
2022-11-14T13:15:16.064Z,39.15
2022-11-14T13:17:35.934Z,40.42
2022-11-14T13:20:05.445Z,40.08
2022-11-14T13:22:13.024Z,38.30
2022-11-14T13:24:19.086Z,44.92
2022-11-14T13:26:20.447Z,38.80
2022-11-14T13:28:37.342Z,34.92
2022-11-14T13:31:15.869Z,41.03
2022-11-14T13:35:44.713Z,36.80
2022-11-14T13:38:10.156Z,39.30
2022-11-14T13:40:28.455Z,37.50
2022-11-14T13:42:59.289Z,41.92
2022-11-14T13:45:19.399Z,40.10
2022-11-14T13:47:51.847Z,34.78
2022-11-14T13:50:09.157Z,38.33
2022-11-14T13:52:12.918Z,35.53
2022-11-14T13:54:18.607Z,37.25
2022-11-14T13:56:38.290Z,35.65
2022-11-14T13:59:21.409Z,37.13
2022-11-14T14:01:31.521Z,33.10
2022-11-14T14:03:48.257Z,32.47
2022-11-14T14:06:20.100Z,35.05
2022-11-14T14:08:34.211Z,41.72
2022-11-14T14:10:42.668Z,32.55
2022-11-14T14:12:44.049Z,37.60
2022-11-14T14:15:04.544Z,41.45
2022-11-14T14:17:20.504Z,36.13
2022-11-14T14:20:01.539Z,37.03
2022-11-14T14:22:20.306Z,36.28
2022-11-14T14:26:59.326Z,33.78
2022-11-14T14:29:18.509Z,33.83
2022-11-14T14:31:20.664Z,31.80
2022-11-14T14:33:22.268Z,34.17
2022-11-14T14:35:28.179Z,32.25
2022-11-14T14:37:29.814Z,32.13
2022-11-14T14:39:31.274Z,35.15
2022-11-14T14:41:33.337Z,31.95
2022-11-14T14:43:35.140Z,32.38
2022-11-14T14:45:54.699Z,30.77
2022-11-14T14:48:21.803Z,31.20
2022-11-14T14:50:26.898Z,31.92
2022-11-14T14:52:29.735Z,35.15
2022-11-14T14:54:31.258Z,32.85
2022-11-14T14:56:32.881Z,34.38
2022-11-14T14:58:35.513Z,35.22
2022-11-14T15:00:37.321Z,35.58
2022-11-14T15:02:38.798Z,31.85
2022-11-14T15:04:40.972Z,35.95
2022-11-14T15:06:46.423Z,33.65
2022-11-14T15:08:49.062Z,31.63
2022-11-14T15:10:51.449Z,31.98
2022-11-14T15:12:53.612Z,31.75
2022-11-14T15:14:56.582Z,31.50
2022-11-14T15:16:59.340Z,29.02
2022-11-14T15:19:00.989Z,36.72
2022-11-14T15:21:22.969Z,32.58
2022-11-14T15:23:24.439Z,30.77
2022-11-14T15:25:26.006Z,34.55
2022-11-14T15:27:27.458Z,32.60
2022-11-14T15:29:31.559Z,32.05
2022-11-14T15:31:35.410Z,29.15
2022-11-14T15:33:36.988Z,30.85
2022-11-14T15:35:40.038Z,34.20
2022-11-14T15:38:15.648Z,33.35
2022-11-14T15:40:22.124Z,30.35
2022-11-14T15:42:23.512Z,30.65
2022-11-14T15:44:31.857Z,31.38
2022-11-14T15:46:33.247Z,34.53
2022-11-14T15:48:34.740Z,39.97
2022-11-14T15:50:36.259Z,31.08
2022-11-14T15:52:46.792Z,31.70
2022-11-14T15:54:48.290Z,31.92
2022-11-14T15:56:50.567Z,29.13
2022-11-14T15:58:52.347Z,33.17
2022-11-14T16:00:55.043Z,28.05
2022-11-14T16:02:57.669Z,28.88
2022-11-14T16:05:00.305Z,29.92
2022-11-14T16:07:02.198Z,31.88
2022-11-14T16:09:04.013Z,31.70
2022-11-14T16:11:05.570Z,30.88
2022-11-14T16:13:07.038Z,33.70
2022-11-14T16:15:08.899Z,32.97
2022-11-14T16:17:15.274Z,26.02
2022-11-14T16:19:17.156Z,34.42
2022-11-14T16:21:18.663Z,30.42
2022-11-14T16:23:20.080Z,31.00
2022-11-14T16:25:26.941Z,30.50
2022-11-14T16:27:28.413Z,32.53
2022-11-14T16:29:29.869Z,30.33
2022-11-14T16:31:31.328Z,34.67
2022-11-14T16:33:33.227Z,34.10
2022-11-14T16:35:34.904Z,31.70
2022-11-14T16:37:36.449Z,32.00
2022-11-14T16:39:38.576Z,32.47
2022-11-14T16:41:40.841Z,31.52
2022-11-14T16:43:42.280Z,31.42
2022-11-14T16:45:43.716Z,34.58
2022-11-14T16:47:45.137Z,30.35
2022-11-14T16:49:46.578Z,35.75
2022-11-14T16:51:52.122Z,37.72
2022-11-14T16:53:56.854Z,30.05
2022-11-14T16:55:58.351Z,30.38
2022-11-14T16:58:00.088Z,29.38
2022-11-14T17:00:03.873Z,32.53
2022-11-14T17:02:05.552Z,36.20
2022-11-14T17:04:07.210Z,32.60
2022-11-14T17:06:10.380Z,36.30
2022-11-14T17:08:11.891Z,30.02
2022-11-14T17:10:13.325Z,35.60
2022-11-14T17:12:14.799Z,39.00
2022-11-14T17:14:16.281Z,34.45
2022-11-14T17:16:18.302Z,39.58
2022-11-14T17:18:19.771Z,35.35
2022-11-14T17:20:21.195Z,32.00
2022-11-14T17:22:22.774Z,37.97
2022-11-14T17:24:28.622Z,35.53
2022-11-14T17:26:32.691Z,38.53
2022-11-14T17:28:34.553Z,32.53
2022-11-14T17:30:41.156Z,35.05
2022-11-14T17:32:42.902Z,33.22
2022-11-14T17:34:44.425Z,33.45
2022-11-14T17:36:45.946Z,33.80
2022-11-14T17:38:47.489Z,33.45
2022-11-14T17:40:48.935Z,34.65
2022-11-14T17:42:52.265Z,33.85
2022-11-14T17:44:53.672Z,38.75
2022-11-14T17:46:55.091Z,33.40
2022-11-14T17:48:58.602Z,37.45
2022-11-14T17:51:10.291Z,42.03
2022-11-14T17:53:11.741Z,37.40
2022-11-14T17:55:13.403Z,34.90
2022-11-14T17:57:14.907Z,36.58
2022-11-14T17:59:16.364Z,33.88
2022-11-14T18:01:20.566Z,35.35
2022-11-14T18:03:22.033Z,38.22
2022-11-14T18:05:23.812Z,34.78
2022-11-14T18:07:25.576Z,38.38
2022-11-14T18:09:29.409Z,32.90
2022-11-14T18:11:31.361Z,33.40
2022-11-14T18:13:33.336Z,36.63
2022-11-14T18:15:36.916Z,34.28
2022-11-14T18:17:38.332Z,36.65
2022-11-14T18:19:39.861Z,35.80
2022-11-14T18:21:43.203Z,35.55
2022-11-14T18:23:57.295Z,45.00
2022-11-14T18:25:58.756Z,39.75
2022-11-14T18:28:00.173Z,36.22
2022-11-14T18:30:19.833Z,36.55
2022-11-14T18:32:23.021Z,36.30
2022-11-14T18:34:24.453Z,39.47
2022-11-14T18:36:25.883Z,35.92
2022-11-14T18:38:30.866Z,36.25
2022-11-14T18:40:32.522Z,37.70
2022-11-14T18:42:33.965Z,34.00
2022-11-14T18:44:35.502Z,37.95
2022-11-14T18:46:37.730Z,39.38
2022-11-14T18:48:40.628Z,35.20
2022-11-14T18:50:42.072Z,35.50
2022-11-14T18:52:43.463Z,33.72
2022-11-14T18:54:44.873Z,48.08
2022-11-14T18:56:46.465Z,33.85
2022-11-14T18:58:52.836Z,36.17
2022-11-14T19:00:54.348Z,35.40
2022-11-14T19:02:55.812Z,35.45
2022-11-14T19:04:57.239Z,34.38
2022-11-14T19:06:58.811Z,33.95
2022-11-14T19:09:08.131Z,33.35
2022-11-14T19:11:33.487Z,35.78
2022-11-14T19:13:35.259Z,34.55
2022-11-14T19:15:36.778Z,33.30
2022-11-14T19:17:38.243Z,31.90
2022-11-14T19:19:39.756Z,35.47
2022-11-14T19:21:41.517Z,36.28
2022-11-14T19:23:42.977Z,34.00
2022-11-14T19:25:44.481Z,34.95
2022-11-14T19:27:50.532Z,34.67
2022-11-14T19:29:51.969Z,35.28
2022-11-14T19:31:54.585Z,37.20
2022-11-14T19:33:56.067Z,32.67
2022-11-14T19:35:58.033Z,38.30
2022-11-14T19:37:59.572Z,34.65
2022-11-14T19:40:01.080Z,32.40
2022-11-14T19:42:02.547Z,34.33
2022-11-14T19:44:04.254Z,32.92
2022-11-14T19:46:07.272Z,35.00
2022-11-14T19:48:08.775Z,37.10
2022-11-14T19:50:11.005Z,39.10
2022-11-14T19:52:13.980Z,32.35
2022-11-14T19:54:15.697Z,35.65
2022-11-14T19:56:18.191Z,31.85
2022-11-14T19:58:19.705Z,34.40
2022-11-14T20:00:24.829Z,32.17
2022-11-14T20:02:28.476Z,34.67
2022-11-14T20:04:32.301Z,32.08
2022-11-14T20:06:37.036Z,34.20
2022-11-14T20:08:38.520Z,39.13
2022-11-14T20:10:47.629Z,32.30
2022-11-14T20:12:49.452Z,33.67
2022-11-14T20:14:51.202Z,36.28
2022-11-14T20:16:52.650Z,37.13
2022-11-14T20:18:59.005Z,35.85
2022-11-14T20:21:05.281Z,36.83
2022-11-14T20:23:06.763Z,43.55
2022-11-14T20:25:08.791Z,32.47
2022-11-14T20:27:10.357Z,33.05
2022-11-14T20:29:11.867Z,34.22
2022-11-14T20:31:15.834Z,42.20
2022-11-14T20:33:18.045Z,34.47
2022-11-14T20:35:19.524Z,38.25
2022-11-14T20:37:21.040Z,33.72
2022-11-14T20:39:22.736Z,33.53
2022-11-14T20:41:25.098Z,33.47
2022-11-14T20:43:28.312Z,31.00
2022-11-14T20:45:30.042Z,34.28
2022-11-14T20:47:31.583Z,34.53
2022-11-14T20:49:33.084Z,38.50
2022-11-14T20:51:36.574Z,34.90
2022-11-14T20:53:38.782Z,38.20
2022-11-14T20:55:41.408Z,36.63
2022-11-14T20:57:42.900Z,35.20
2022-11-14T20:59:44.494Z,36.00
2022-11-14T21:01:46.018Z,34.28
2022-11-14T21:03:48.551Z,31.48
2022-11-14T21:05:50.032Z,29.95
2022-11-14T21:07:51.549Z,29.90
2022-11-14T21:10:13.228Z,31.65
2022-11-14T21:12:14.926Z,29.70
2022-11-14T21:14:16.365Z,29.75
2022-11-14T21:16:21.867Z,28.17
2022-11-14T21:18:23.658Z,29.50
2022-11-14T21:20:25.424Z,28.63
2022-11-14T21:22:26.833Z,28.27
2022-11-14T21:24:28.588Z,30.17
2022-11-14T21:26:36.239Z,27.45
2022-11-14T21:28:41.048Z,29.10
2022-11-14T21:30:42.484Z,29.52
2022-11-14T21:32:43.963Z,30.77
2022-11-14T21:34:45.394Z,26.88
2022-11-14T21:36:48.220Z,28.20
2022-11-14T21:38:49.739Z,33.20
2022-11-14T21:40:55.215Z,31.85
2022-11-14T21:42:56.633Z,26.33
2022-11-14T21:44:58.111Z,28.48
2022-11-14T21:46:59.738Z,28.50
2022-11-14T21:49:01.170Z,26.95
2022-11-14T21:51:14.671Z,29.67
2022-11-14T21:53:16.485Z,29.60
2022-11-14T21:55:17.965Z,26.27
2022-11-14T21:57:19.387Z,23.80
2022-11-14T21:59:25.641Z,27.92
2022-11-14T22:01:45.445Z,30.98
2022-11-14T22:04:05.336Z,31.85
2022-11-14T22:06:06.806Z,27.23
2022-11-14T22:08:08.218Z,28.33
2022-11-14T22:10:09.856Z,27.05
2022-11-14T22:12:11.343Z,31.83
2022-11-14T22:14:12.827Z,28.75
2022-11-14T22:16:17.704Z,27.30
2022-11-14T22:18:19.121Z,29.10
2022-11-14T22:20:20.551Z,31.20
2022-11-14T22:22:21.963Z,29.75
2022-11-14T22:24:23.739Z,30.08
2022-11-14T22:26:25.263Z,27.65
2022-11-14T22:28:28.426Z,30.20
2022-11-14T22:30:29.936Z,29.73
2022-11-14T22:32:32.140Z,30.80
2022-11-14T22:34:33.550Z,27.85
2022-11-14T22:36:35.517Z,32.70
2022-11-14T22:38:37.967Z,33.63
2022-11-14T22:40:39.514Z,28.25
2022-11-14T22:42:40.969Z,27.13
2022-11-14T22:44:42.386Z,25.67
2022-11-14T22:46:43.807Z,27.52
2022-11-14T22:48:46.482Z,27.55
2022-11-14T22:50:48.189Z,27.17
2022-11-14T22:52:49.609Z,28.50
2022-11-14T22:54:51.008Z,28.63
2022-11-14T22:56:52.448Z,27.77
2022-11-14T22:58:54.816Z,26.95
2022-11-14T23:00:56.243Z,30.08
2022-11-14T23:03:20.388Z,28.70
2022-11-14T23:05:22.169Z,28.15
2022-11-14T23:07:23.644Z,29.33
2022-11-14T23:09:25.153Z,28.17
2022-11-14T23:11:29.071Z,28.75
2022-11-14T23:13:31.137Z,27.17
2022-11-14T23:15:32.970Z,25.58
2022-11-14T23:17:34.388Z,30.85
2022-11-14T23:19:35.827Z,28.05
2022-11-14T23:21:37.288Z,26.33
2022-11-14T23:23:38.774Z,29.38
2022-11-14T23:25:40.221Z,28.58
2022-11-14T23:27:41.647Z,28.77
2022-11-14T23:29:43.093Z,30.63
2022-11-14T23:31:44.515Z,28.73
2022-11-14T23:33:51.345Z,26.13
2022-11-14T23:35:52.809Z,27.58
2022-11-14T23:37:54.219Z,26.63
2022-11-14T23:39:55.634Z,28.23
2022-11-14T23:41:57.076Z,29.15
2022-11-14T23:43:58.557Z,26.38
2022-11-14T23:45:59.982Z,23.67
2022-11-14T23:48:01.469Z,29.13
2022-11-14T23:50:02.991Z,28.83
2022-11-14T23:52:04.600Z,26.08
2022-11-14T23:54:06.058Z,26.42
2022-11-14T23:56:11.788Z,21.13
2022-11-14T23:58:13.213Z,23.17
